East Stroudsburg, Pennsylvania
Current Conditions -  °F | °C
As of 1:53 AM on Friday 28 Nov 2014 (Local Time) from KMPO Reporting Station
Light Snow Light Snow  
Wind Chill: 14°   Ceiling: 2600
Heat Index: 24°   Visibility: 3mi
Dew Point: 20°   Wind: 9mph
Humidity: 84%   Direction: 290°WNW
Pressure: 29.99"   Gusts: NA
Location:  40.99°N, 75.18°W
Report Text: KMPO 280653Z AUTO 29008KT 3SM -SN BR BKN026 OVC060 M04/M07 A2999 RMK AO2 SNB01 SLP179 P0000 T10441067
Loading
Personal Weather Stations






























Interactive Weather Map New forecast layout! Learn more

10-Day Weather Forecast

Advertisements
Track Severe Weather on mobile